createdAt,value
2022-12-13T00:01:52.073Z,100882.78
2022-12-13T00:04:21.697Z,100878.66
2022-12-13T00:06:50.025Z,100876.50
2022-12-13T00:09:19.253Z,100873.94
2022-12-13T00:11:46.248Z,100872.28
2022-12-13T00:14:15.002Z,100861.72
2022-12-13T00:16:48.856Z,100870.31
2022-12-13T00:19:16.882Z,100871.72
2022-12-13T00:21:44.591Z,100860.38
2022-12-13T00:24:11.526Z,100863.44
2022-12-13T00:26:38.442Z,100862.59
2022-12-13T00:29:07.621Z,100859.19
2022-12-13T00:34:22.580Z,100843.72
2022-12-13T00:36:49.859Z,100849.69
2022-12-13T00:39:19.227Z,100845.53
2022-12-13T00:41:46.750Z,100862.88
2022-12-13T00:44:14.609Z,100862.78
2022-12-13T00:46:42.545Z,100852.63
2022-12-13T00:49:12.943Z,100855.50
2022-12-13T00:51:40.873Z,100855.59
2022-12-13T00:54:08.126Z,100861.41
2022-12-13T00:56:37.343Z,100853.75
2022-12-13T00:59:04.872Z,100838.72
2022-12-13T01:01:36.631Z,100846.91
2022-12-13T01:04:07.981Z,100835.09
2022-12-13T01:06:45.726Z,100848.50
2022-12-13T01:09:20.436Z,100842.13
2022-12-13T01:11:48.866Z,100834.38
2022-12-13T01:14:17.361Z,100852.75
2022-12-13T01:16:44.420Z,100841.19
2022-12-13T01:19:11.437Z,100849.69
2022-12-13T01:21:38.628Z,100845.53
2022-12-13T01:24:06.840Z,100855.78
2022-12-13T01:26:34.190Z,100855.50
2022-12-13T01:29:01.372Z,100854.31
2022-12-13T01:31:28.926Z,100856.03
2022-12-13T01:33:55.817Z,100848.06
2022-12-13T01:36:27.318Z,100842.50
2022-12-13T01:38:59.364Z,100838.94
2022-12-13T01:41:28.528Z,100836.06
2022-12-13T01:44:52.221Z,100827.84
2022-12-13T01:47:52.067Z,100825.84
2022-12-13T01:50:27.906Z,100833.66
2022-12-13T01:52:56.137Z,100833.22
2022-12-13T01:55:32.368Z,100834.41
2022-12-13T01:58:03.538Z,100834.22
2022-12-13T02:00:31.236Z,100827.13
2022-12-13T02:02:59.940Z,100831.13
2022-12-13T02:06:01.823Z,100824.47
2022-12-13T02:08:30.053Z,100830.53
2022-12-13T02:10:58.555Z,100830.28
2022-12-13T02:13:25.445Z,100828.81
2022-12-13T02:16:22.300Z,100840.47
2022-12-13T02:19:26.401Z,100819.75
2022-12-13T02:22:30.986Z,100819.19
2022-12-13T02:25:45.407Z,100831.66
2022-12-13T02:28:53.683Z,100815.38
2022-12-13T02:31:52.223Z,100819.38
2022-12-13T02:34:27.036Z,100821.44
2022-12-13T02:37:28.682Z,100819.03
2022-12-13T02:40:03.377Z,100816.16
2022-12-13T02:43:00.280Z,100809.59
2022-12-13T02:45:38.138Z,100798.44
2022-12-13T02:48:08.485Z,100809.44
2022-12-13T02:50:36.981Z,100805.59
2022-12-13T02:53:06.320Z,100799.53
2022-12-13T02:55:35.886Z,100797.53
2022-12-13T02:58:02.899Z,100801.75
2022-12-13T03:01:29.049Z,100801.75
2022-12-13T03:04:29.110Z,100801.59
2022-12-13T03:07:24.352Z,100790.06
2022-12-13T03:10:11.701Z,100779.78
2022-12-13T03:13:11.979Z,100789.34
2022-12-13T03:15:57.898Z,100787.59
2022-12-13T03:18:28.704Z,100791.88
2022-12-13T03:21:03.748Z,100802.28
2022-12-13T03:23:31.434Z,100788.56
2022-12-13T03:26:13.429Z,100791.84
2022-12-13T03:28:40.949Z,100783.47
2022-12-13T03:31:08.564Z,100785.75
2022-12-13T03:33:35.625Z,100785.84
2022-12-13T03:36:03.127Z,100781.44
2022-12-13T03:38:30.540Z,100774.88
2022-12-13T03:41:12.046Z,100783.38
2022-12-13T03:43:40.547Z,100782.78
2022-12-13T03:46:09.084Z,100776.25
2022-12-13T03:48:36.520Z,100779.94
2022-12-13T03:51:03.881Z,100770.75
2022-12-13T03:53:32.355Z,100780.13
2022-12-13T03:56:05.965Z,100781.94
2022-12-13T03:58:37.684Z,100779.84
2022-12-13T04:01:15.420Z,100773.59
2022-12-13T04:03:45.519Z,100777.94
2022-12-13T04:06:13.475Z,100778.72
2022-12-13T04:08:51.428Z,100769.75
2022-12-13T04:11:43.038Z,100779.13
2022-12-13T04:14:12.108Z,100784.84
2022-12-13T04:16:39.876Z,100783.06
2022-12-13T04:19:07.571Z,100787.09
2022-12-13T04:21:34.487Z,100772.00
2022-12-13T04:24:04.459Z,100768.28
2022-12-13T04:26:34.310Z,100764.34
2022-12-13T04:29:01.254Z,100754.47
2022-12-13T04:31:28.224Z,100755.56
2022-12-13T04:33:55.152Z,100760.72
2022-12-13T04:36:32.365Z,100757.00
2022-12-13T04:39:01.605Z,100753.56
2022-12-13T04:41:34.556Z,100748.91
2022-12-13T04:44:02.647Z,100745.31
2022-12-13T04:46:29.688Z,100757.06
2022-12-13T04:48:58.204Z,100747.59
2022-12-13T04:51:25.184Z,100751.78
2022-12-13T04:53:52.659Z,100741.16
2022-12-13T04:56:19.921Z,100757.69
2022-12-13T04:58:46.865Z,100761.06
2022-12-13T05:01:14.027Z,100756.09
2022-12-13T05:03:40.999Z,100760.53
2022-12-13T05:06:26.808Z,100757.63
2022-12-13T05:08:55.122Z,100754.75
2022-12-13T05:11:35.921Z,100768.72
2022-12-13T05:14:03.842Z,100766.63
2022-12-13T05:16:30.838Z,100760.97
2022-12-13T05:18:57.902Z,100770.06
2022-12-13T05:21:24.833Z,100772.25
2022-12-13T05:23:51.755Z,100765.03
2022-12-13T05:26:18.717Z,100757.41
2022-12-13T05:28:45.720Z,100765.06
2022-12-13T05:31:23.610Z,100761.63
2022-12-13T05:33:52.186Z,100775.78
2022-12-13T05:36:19.620Z,100775.94
2022-12-13T05:38:46.500Z,100769.59
2022-12-13T05:41:19.814Z,100760.28
2022-12-13T05:43:46.714Z,100768.25
2022-12-13T05:46:14.086Z,100758.03
2022-12-13T05:48:41.882Z,100764.13
2022-12-13T05:51:11.898Z,100763.88
2022-12-13T05:53:42.655Z,100757.25
2022-12-13T05:56:11.372Z,100757.53
2022-12-13T05:58:40.314Z,100760.13
2022-12-13T06:01:14.061Z,100748.34
2022-12-13T06:03:42.053Z,100747.16
2022-12-13T06:06:11.228Z,100740.44
2022-12-13T06:08:38.688Z,100769.16
2022-12-13T06:11:11.061Z,100765.00
2022-12-13T06:13:44.017Z,100769.94
2022-12-13T06:16:22.936Z,100759.66
2022-12-13T06:18:59.395Z,100767.41
2022-12-13T06:21:41.200Z,100749.94
2022-12-13T06:24:10.881Z,100751.63
2022-12-13T06:26:37.936Z,100739.72
2022-12-13T06:29:04.820Z,100744.00
2022-12-13T06:31:31.845Z,100755.72
2022-12-13T06:34:14.981Z,100747.53
2022-12-13T06:36:43.063Z,100744.97
2022-12-13T06:39:10.085Z,100756.53
2022-12-13T06:41:37.179Z,100748.00
2022-12-13T06:44:05.086Z,100744.59
2022-12-13T06:46:32.451Z,100751.94
2022-12-13T06:48:59.594Z,100751.78
2022-12-13T06:51:32.823Z,100742.00
2022-12-13T06:54:04.022Z,100753.59
2022-12-13T06:56:31.704Z,100756.72
2022-12-13T06:59:01.185Z,100754.09
2022-12-13T07:01:37.777Z,100753.19
2022-12-13T07:04:29.012Z,100750.44
2022-12-13T07:06:53.845Z,100762.59
2022-12-13T07:09:20.912Z,100747.81
2022-12-13T07:11:51.963Z,100757.81
2022-12-13T07:14:20.206Z,100746.22
2022-12-13T07:16:50.356Z,100760.34
2022-12-13T07:19:23.586Z,100760.88
2022-12-13T07:21:51.877Z,100758.78
2022-12-13T07:24:22.369Z,100753.59
2022-12-13T07:26:49.396Z,100779.03
2022-12-13T07:29:22.386Z,100755.19
2022-12-13T07:31:50.094Z,100780.91
2022-12-13T07:34:17.511Z,100770.53
2022-12-13T07:36:44.428Z,100777.31
2022-12-13T07:39:11.332Z,100782.84
2022-12-13T07:41:38.259Z,100763.06
2022-12-13T07:44:05.351Z,100773.44
2022-12-13T07:46:33.882Z,100772.59
2022-12-13T07:49:05.263Z,100792.88
2022-12-13T07:51:35.116Z,100791.53
2022-12-13T07:54:07.071Z,100787.84
2022-12-13T07:56:35.787Z,100793.91
2022-12-13T07:59:07.594Z,100798.50
2022-12-13T08:01:41.182Z,100798.22
2022-12-13T08:04:10.927Z,100789.28
2022-12-13T08:06:40.593Z,100788.97
2022-12-13T08:09:08.084Z,100793.59
2022-12-13T08:11:38.038Z,100805.66
2022-12-13T08:14:06.274Z,100804.00
2022-12-13T08:16:35.576Z,100814.47
2022-12-13T08:19:05.335Z,100803.22
2022-12-13T08:22:01.865Z,100808.31
2022-12-13T08:24:30.754Z,100806.38
2022-12-13T08:27:02.814Z,100811.72
2022-12-13T08:29:34.501Z,100800.03
2022-12-13T08:32:09.522Z,100810.69
2022-12-13T08:34:36.770Z,100813.78
2022-12-13T08:37:04.853Z,100821.66
2022-12-13T08:39:35.736Z,100807.63
2022-12-13T08:42:16.705Z,100805.59
2022-12-13T08:44:50.884Z,100807.69
2022-12-13T08:47:23.708Z,100792.00
2022-12-13T08:50:04.095Z,100801.94
2022-12-13T08:52:39.289Z,100801.59
2022-12-13T08:55:12.722Z,100794.03
2022-12-13T08:57:41.214Z,100795.56
2022-12-13T09:00:18.429Z,100795.69
2022-12-13T09:02:45.455Z,100796.16
2022-12-13T09:05:13.167Z,100780.06
2022-12-13T09:07:59.720Z,100770.94
2022-12-13T09:10:29.842Z,100761.03
2022-12-13T09:13:19.397Z,100774.78
2022-12-13T09:15:52.640Z,100771.81
2022-12-13T09:18:24.168Z,100775.00
2022-12-13T09:20:55.598Z,100783.72
2022-12-13T09:23:47.491Z,100779.53
2022-12-13T09:26:16.616Z,100778.28
2022-12-13T09:28:43.759Z,100769.66
2022-12-13T09:31:14.700Z,100768.28
2022-12-13T09:33:42.474Z,100757.50
2022-12-13T09:36:17.655Z,100747.28
2022-12-13T09:38:45.337Z,100753.69
2022-12-13T09:41:32.930Z,100756.31
2022-12-13T09:44:46.659Z,100781.59
2022-12-13T09:47:35.335Z,100781.09
2022-12-13T09:50:15.276Z,100768.94
2022-12-13T09:52:44.393Z,100775.41
2022-12-13T09:55:24.243Z,100759.25
2022-12-13T09:57:52.739Z,100764.28
2022-12-13T10:00:27.492Z,100763.69
2022-12-13T10:02:58.346Z,100763.41
2022-12-13T10:05:34.388Z,100757.75
2022-12-13T10:08:47.234Z,100761.72
2022-12-13T10:11:16.983Z,100755.03
2022-12-13T10:13:48.232Z,100764.28
2022-12-13T10:16:36.467Z,100747.41
2022-12-13T10:19:28.720Z,100743.91
2022-12-13T10:22:01.739Z,100740.50
2022-12-13T10:24:47.270Z,100743.50
2022-12-13T10:27:42.915Z,100733.72
2022-12-13T10:30:27.944Z,100719.81
2022-12-13T10:33:02.689Z,100725.34
2022-12-13T10:35:38.039Z,100729.53
2022-12-13T10:38:14.003Z,100726.63
2022-12-13T10:40:46.740Z,100721.91
2022-12-13T10:43:27.520Z,100716.34
2022-12-13T10:46:00.347Z,100704.03
2022-12-13T10:48:49.767Z,100697.56
2022-12-13T10:51:22.253Z,100706.25
2022-12-13T10:53:55.298Z,100705.97
2022-12-13T10:56:32.753Z,100717.94
2022-12-13T10:59:17.259Z,100707.13
2022-12-13T11:01:45.175Z,100703.28
2022-12-13T11:04:33.880Z,100695.03
2022-12-13T11:07:26.222Z,100688.31
2022-12-13T11:09:53.323Z,100690.88
2022-12-13T11:12:24.428Z,100696.16
2022-12-13T11:15:16.199Z,100691.13
2022-12-13T11:17:52.873Z,100681.63
2022-12-13T11:20:34.209Z,100674.72
2022-12-13T11:23:45.229Z,100666.88
2022-12-13T11:26:25.105Z,100671.28
2022-12-13T11:30:01.637Z,100661.47
2022-12-13T11:32:43.504Z,100655.84
2022-12-13T11:35:41.745Z,100650.47
2022-12-13T11:38:31.091Z,100648.00
2022-12-13T11:41:32.544Z,100648.50
2022-12-13T11:44:09.257Z,100639.34
2022-12-13T11:46:42.718Z,100631.81
2022-12-13T11:49:19.214Z,100624.69
2022-12-13T11:52:20.065Z,100613.41
2022-12-13T11:55:04.170Z,100621.78
2022-12-13T11:57:55.052Z,100621.50
2022-12-13T12:00:35.737Z,100614.81
2022-12-13T12:03:21.329Z,100605.47
2022-12-13T12:05:56.511Z,100612.75
2022-12-13T12:08:57.073Z,100609.53
2022-12-13T12:11:46.301Z,100598.59
2022-12-13T12:15:26.698Z,100597.19
2022-12-13T12:17:57.929Z,100593.50
2022-12-13T12:20:57.176Z,100591.66
2022-12-13T12:23:47.386Z,100583.69
2022-12-13T12:26:31.849Z,100586.13
2022-12-13T12:29:44.949Z,100578.38
2022-12-13T12:32:51.666Z,100568.25
2022-12-13T12:36:18.074Z,100570.53
2022-12-13T12:38:59.982Z,100560.53
2022-12-13T12:41:51.435Z,100555.56
2022-12-13T12:44:51.421Z,100554.13
2022-12-13T12:51:03.617Z,100543.41
2022-12-13T12:54:14.830Z,100556.03
2022-12-13T12:57:09.478Z,100561.34
2022-12-13T13:00:24.727Z,100555.97
2022-12-13T13:03:26.965Z,100548.25
2022-12-13T13:06:06.209Z,100542.28
2022-12-13T13:09:01.216Z,100546.31
2022-12-13T13:11:31.557Z,100543.19
2022-12-13T13:14:01.952Z,100538.56
2022-12-13T13:16:40.075Z,100535.50
2022-12-13T13:19:12.783Z,100525.91
2022-12-13T13:21:53.351Z,100527.69
2022-12-13T13:24:32.424Z,100526.94
2022-12-13T13:27:09.862Z,100523.25
2022-12-13T13:29:43.235Z,100526.66
2022-12-13T13:32:11.208Z,100519.63
2022-12-13T13:34:41.524Z,100512.97
2022-12-13T13:37:29.299Z,100506.72
2022-12-13T13:40:08.308Z,100506.94
2022-12-13T13:43:01.176Z,100507.84
2022-12-13T13:45:28.117Z,100504.41
2022-12-13T13:48:49.608Z,100500.81
2022-12-13T13:55:29.012Z,100499.78
2022-12-13T13:58:11.473Z,100495.44
2022-12-13T14:01:44.268Z,100500.31
2022-12-13T14:05:03.620Z,100490.00
2022-12-13T14:08:20.342Z,100487.59
2022-12-13T14:11:00.959Z,100494.97
2022-12-13T14:14:01.914Z,100482.47
2022-12-13T14:17:01.766Z,100476.59
2022-12-13T14:20:06.129Z,100469.13
2022-12-13T14:22:46.424Z,100466.56
2022-12-13T14:25:46.410Z,100467.56
2022-12-13T14:28:28.019Z,100463.06
2022-12-13T14:30:57.198Z,100459.44
2022-12-13T14:33:26.793Z,100461.16
2022-12-13T14:36:00.445Z,100471.31
2022-12-13T14:38:30.986Z,100457.31
2022-12-13T14:41:02.069Z,100475.47
2022-12-13T14:43:34.895Z,100476.41
2022-12-13T14:46:05.425Z,100471.03
2022-12-13T14:48:50.634Z,100463.34
2022-12-13T14:51:39.507Z,100462.69
2022-12-13T14:54:08.028Z,100457.91
2022-12-13T14:56:35.272Z,100467.53
2022-12-13T14:59:12.340Z,100464.38
2022-12-13T15:01:40.481Z,100442.72
2022-12-13T15:04:37.908Z,100439.97
2022-12-13T15:07:25.876Z,100436.03
2022-12-13T15:10:01.204Z,100440.66
2022-12-13T15:12:30.007Z,100440.44
2022-12-13T15:15:06.403Z,100433.97
2022-12-13T15:17:39.812Z,100439.72
2022-12-13T15:20:31.678Z,100440.53
2022-12-13T15:23:21.338Z,100448.59
2022-12-13T15:26:11.318Z,100447.78
2022-12-13T15:28:46.822Z,100433.06
2022-12-13T15:31:14.855Z,100436.50
2022-12-13T15:33:48.184Z,100433.06
2022-12-13T15:36:25.410Z,100432.72
2022-12-13T15:38:55.275Z,100430.47
2022-12-13T15:41:36.852Z,100419.72
2022-12-13T15:44:19.498Z,100425.31
2022-12-13T15:46:49.917Z,100411.03
2022-12-13T15:49:32.079Z,100424.00
2022-12-13T15:52:28.361Z,100413.06
2022-12-13T15:55:21.761Z,100427.13
2022-12-13T15:57:58.143Z,100428.19
2022-12-13T16:00:34.517Z,100417.19
2022-12-13T16:03:14.970Z,100433.88
2022-12-13T16:05:51.591Z,100428.66
2022-12-13T16:08:35.621Z,100419.97
2022-12-13T16:11:03.389Z,100419.56
2022-12-13T16:13:37.146Z,100417.31
2022-12-13T16:16:10.121Z,100421.81
2022-12-13T16:18:57.610Z,100428.38
2022-12-13T16:21:25.652Z,100426.34
2022-12-13T16:23:52.976Z,100425.75
2022-12-13T16:26:26.432Z,100427.47
2022-12-13T16:29:00.608Z,100428.91
2022-12-13T16:31:35.810Z,100428.53
2022-12-13T16:34:04.613Z,100429.53
2022-12-13T16:36:32.062Z,100441.38
2022-12-13T16:38:59.222Z,100435.84
2022-12-13T16:41:26.329Z,100425.75
2022-12-13T16:44:01.448Z,100432.06
2022-12-13T16:47:12.235Z,100435.78
2022-12-13T16:49:27.903Z,100439.69
2022-12-13T16:51:56.093Z,100433.38
2022-12-13T16:54:25.291Z,100438.38
2022-12-13T16:56:54.099Z,100437.19
2022-12-13T16:59:24.864Z,100434.81
2022-12-13T17:01:52.162Z,100435.44
2022-12-13T17:04:22.538Z,100434.16
2022-12-13T17:06:50.931Z,100435.78
2022-12-13T17:09:21.632Z,100433.09
2022-12-13T17:11:48.585Z,100440.53
2022-12-13T17:14:15.638Z,100444.75
2022-12-13T17:16:42.890Z,100448.81
2022-12-13T17:19:12.006Z,100440.28
2022-12-13T17:21:38.981Z,100423.53
2022-12-13T17:24:06.269Z,100422.72
2022-12-13T17:26:33.230Z,100429.84
2022-12-13T17:29:00.169Z,100430.34
2022-12-13T17:31:34.934Z,100433.50
2022-12-13T17:34:04.073Z,100433.03
2022-12-13T17:36:34.063Z,100434.91
2022-12-13T17:39:00.986Z,100431.09
2022-12-13T17:41:27.915Z,100426.84
2022-12-13T17:44:00.422Z,100419.88
2022-12-13T17:46:27.411Z,100419.00
2022-12-13T17:48:54.387Z,100408.06
2022-12-13T17:51:21.358Z,100403.41
2022-12-13T17:53:48.291Z,100399.38
2022-12-13T17:56:16.087Z,100398.03
2022-12-13T17:58:43.952Z,100398.22
2022-12-13T18:01:20.726Z,100393.09
2022-12-13T18:03:49.036Z,100389.94
2022-12-13T18:06:16.423Z,100387.34
2022-12-13T18:08:46.034Z,100384.88
2022-12-13T18:14:04.766Z,100366.38
2022-12-13T18:16:38.255Z,100370.19
2022-12-13T18:19:08.716Z,100378.19
2022-12-13T18:21:36.900Z,100375.94
2022-12-13T18:24:06.625Z,100374.81
2022-12-13T18:26:34.150Z,100372.41
2022-12-13T18:29:01.542Z,100366.66
2022-12-13T18:31:28.634Z,100367.81
2022-12-13T18:34:00.982Z,100376.69
2022-12-13T18:36:28.511Z,100381.72
2022-12-13T18:38:55.620Z,100371.38
2022-12-13T18:41:27.926Z,100374.28
2022-12-13T18:44:00.726Z,100369.13
2022-12-13T18:46:30.879Z,100374.88
2022-12-13T18:48:58.370Z,100362.34
2022-12-13T18:51:26.359Z,100356.66
2022-12-13T18:53:54.967Z,100353.69
2022-12-13T18:56:22.067Z,100339.63
2022-12-13T18:58:50.550Z,100349.91
2022-12-13T19:01:18.692Z,100346.69
2022-12-13T19:03:47.576Z,100342.47
2022-12-13T19:06:22.082Z,100352.66
2022-12-13T19:08:57.645Z,100350.34
2022-12-13T19:11:27.007Z,100343.91
2022-12-13T19:13:54.841Z,100335.41
2022-12-13T19:16:23.408Z,100341.41
2022-12-13T19:18:50.607Z,100335.84
2022-12-13T19:21:20.466Z,100323.69
2022-12-13T19:23:55.038Z,100335.63
2022-12-13T19:26:24.277Z,100330.81
2022-12-13T19:28:51.268Z,100325.63
2022-12-13T19:31:18.388Z,100313.84
2022-12-13T19:33:45.349Z,100300.19
2022-12-13T19:36:12.639Z,100295.66
2022-12-13T19:38:40.418Z,100294.91
2022-12-13T19:41:14.414Z,100303.97
2022-12-13T19:43:46.576Z,100299.16
2022-12-13T19:46:19.405Z,100297.63
2022-12-13T19:48:46.431Z,100292.25
2022-12-13T19:51:13.590Z,100291.06
2022-12-13T19:53:41.574Z,100288.34
2022-12-13T19:56:11.527Z,100287.22
2022-12-13T19:58:39.420Z,100282.13
2022-12-13T20:01:07.881Z,100284.59
2022-12-13T20:03:37.476Z,100278.84
2022-12-13T20:06:07.270Z,100272.94
2022-12-13T20:08:34.695Z,100264.38
2022-12-13T20:11:13.091Z,100263.22
2022-12-13T20:13:41.008Z,100265.66
2022-12-13T20:16:08.718Z,100260.97
2022-12-13T20:18:35.686Z,100256.25
2022-12-13T20:21:14.133Z,100250.13
2022-12-13T20:23:49.182Z,100255.44
2022-12-13T20:26:25.975Z,100259.00
2022-12-13T20:28:53.184Z,100261.59
2022-12-13T20:31:24.214Z,100269.59
2022-12-13T20:34:04.575Z,100270.72
2022-12-13T20:36:31.909Z,100259.81
2022-12-13T20:39:01.488Z,100254.38
2022-12-13T20:41:31.225Z,100244.88
2022-12-13T20:44:00.700Z,100246.72
2022-12-13T20:46:29.636Z,100257.66
2022-12-13T20:49:00.753Z,100258.97
2022-12-13T20:51:30.072Z,100249.03
2022-12-13T20:53:57.495Z,100253.84
2022-12-13T20:56:30.671Z,100242.16
2022-12-13T20:58:57.828Z,100236.72
2022-12-13T21:01:28.383Z,100224.47
2022-12-13T21:04:00.077Z,100228.44
2022-12-13T21:06:29.573Z,100229.47
2022-12-13T21:09:02.525Z,100221.59
2022-12-13T21:11:37.734Z,100234.09
2022-12-13T21:14:12.318Z,100226.50
2022-12-13T21:16:48.907Z,100227.63
2022-12-13T21:19:25.299Z,100227.44
2022-12-13T21:21:53.456Z,100216.78
2022-12-13T21:24:22.947Z,100221.78
2022-12-13T21:26:51.250Z,100210.47
2022-12-13T21:29:19.007Z,100199.81
2022-12-13T21:31:49.851Z,100205.44
2022-12-13T21:34:18.910Z,100207.88
2022-12-13T21:36:52.227Z,100201.44
2022-12-13T21:39:23.303Z,100204.53
2022-12-13T21:41:50.620Z,100198.84
2022-12-13T21:44:19.206Z,100198.41
2022-12-13T21:49:34.355Z,100191.91
2022-12-13T21:52:01.284Z,100194.31
2022-12-13T21:54:28.180Z,100185.09
2022-12-13T21:57:13.487Z,100195.13
2022-12-13T21:59:40.429Z,100188.72
2022-12-13T22:02:19.958Z,100183.91
2022-12-13T22:04:50.250Z,100196.94
2022-12-13T22:07:22.520Z,100194.91
2022-12-13T22:09:51.270Z,100182.41
2022-12-13T22:12:32.038Z,100185.22
2022-12-13T22:14:59.095Z,100181.19
2022-12-13T22:17:34.748Z,100172.94
2022-12-13T22:20:08.980Z,100173.69
2022-12-13T22:22:38.397Z,100182.34
2022-12-13T22:25:06.659Z,100185.63
2022-12-13T22:27:34.219Z,100178.78
2022-12-13T22:30:01.198Z,100176.66
2022-12-13T22:32:30.368Z,100172.13
2022-12-13T22:34:57.661Z,100169.19
2022-12-13T22:37:25.003Z,100169.06
2022-12-13T22:39:52.092Z,100173.28
2022-12-13T22:42:19.816Z,100173.53
2022-12-13T22:44:46.901Z,100180.59
2022-12-13T22:47:13.818Z,100179.78
2022-12-13T22:49:40.773Z,100187.06
2022-12-13T22:52:07.775Z,100191.03
2022-12-13T22:54:34.740Z,100180.34
2022-12-13T22:57:01.733Z,100203.00
2022-12-13T22:59:28.732Z,100193.50
2022-12-13T23:02:02.151Z,100193.47
2022-12-13T23:04:31.691Z,100192.09
2022-12-13T23:06:58.720Z,100189.50
2022-12-13T23:09:25.620Z,100184.81
2022-12-13T23:12:11.091Z,100187.88
2022-12-13T23:14:37.988Z,100183.63
2022-12-13T23:17:05.441Z,100176.72
2022-12-13T23:19:50.631Z,100176.84
2022-12-13T23:22:25.431Z,100167.19
2022-12-13T23:24:53.282Z,100168.84
2022-12-13T23:27:22.811Z,100181.72
2022-12-13T23:29:50.135Z,100180.59
2022-12-13T23:32:17.452Z,100172.34
2022-12-13T23:34:44.358Z,100155.84
2022-12-13T23:37:11.563Z,100153.63
2022-12-13T23:39:38.781Z,100153.53
2022-12-13T23:42:05.759Z,100161.38
2022-12-13T23:44:32.721Z,100151.66
2022-12-13T23:46:59.647Z,100158.13
2022-12-13T23:49:26.592Z,100140.84
2022-12-13T23:51:54.194Z,100131.94
2022-12-13T23:54:21.109Z,100123.69
2022-12-13T23:56:48.423Z,100116.88
2022-12-13T23:59:15.316Z,100119.66
